createdAt,value
2022-08-09T00:00:11.395Z,71.00
2022-08-09T00:02:47.300Z,71.10
2022-08-09T00:06:15.638Z,71.10
2022-08-09T00:08:04.071Z,71.20
2022-08-09T00:10:38.413Z,71.30
2022-08-09T00:13:06.743Z,71.30
2022-08-09T00:15:58.659Z,71.40
2022-08-09T00:18:30.435Z,71.50
2022-08-09T00:20:58.226Z,71.40
2022-08-09T00:23:56.724Z,71.50
2022-08-09T00:26:12.255Z,71.50
2022-08-09T00:28:41.140Z,71.60
2022-08-09T00:31:09.380Z,71.60
2022-08-09T00:33:55.238Z,71.60
2022-08-09T00:36:29.538Z,71.70
2022-08-09T00:38:57.833Z,71.70
2022-08-09T00:44:14.880Z,71.80
2022-08-09T00:44:25.204Z,71.80
2022-08-09T00:46:57.760Z,71.90
2022-08-09T00:49:33.597Z,71.90
2022-08-09T00:52:02.083Z,71.90
2022-08-09T00:54:35.876Z,72.20
2022-08-09T00:57:08.792Z,72.20
2022-08-09T00:59:41.293Z,72.30
2022-08-09T01:02:19.281Z,72.40
2022-08-09T01:05:14.009Z,72.50
2022-08-09T01:08:00.112Z,72.50
2022-08-09T01:10:29.014Z,72.60
2022-08-09T01:12:59.332Z,72.70
2022-08-09T01:15:29.209Z,72.70
2022-08-09T01:17:57.976Z,72.80
2022-08-09T01:20:27.466Z,72.80
2022-08-09T01:24:00.561Z,72.80
2022-08-09T01:26:11.457Z,72.90
2022-08-09T01:28:44.155Z,73.00
2022-08-09T01:31:23.419Z,73.10
2022-08-09T01:34:04.228Z,73.10
2022-08-09T01:36:36.503Z,73.10
2022-08-09T01:39:06.471Z,73.20
2022-08-09T01:41:36.246Z,73.20
2022-08-09T01:44:03.932Z,73.30
2022-08-09T01:46:32.574Z,73.40
2022-08-09T01:49:10.125Z,73.50
2022-08-09T01:51:39.193Z,73.50
2022-08-09T01:54:10.235Z,73.50
2022-08-09T01:56:39.364Z,73.50
2022-08-09T01:59:08.235Z,73.70
2022-08-09T02:01:58.588Z,74.00
2022-08-09T02:04:23.239Z,74.10
2022-08-09T02:07:17.895Z,74.20
2022-08-09T02:10:01.455Z,74.20
2022-08-09T02:12:32.848Z,74.10
2022-08-09T02:15:00.455Z,74.10
2022-08-09T02:18:01.381Z,74.70
2022-08-09T02:20:15.781Z,74.00
2022-08-09T02:23:12.621Z,74.30
2022-08-09T02:25:42.701Z,74.40
2022-08-09T02:28:18.975Z,74.30
2022-08-09T02:30:47.981Z,74.40
2022-08-09T02:33:20.161Z,74.50
2022-08-09T02:36:02.785Z,74.60
2022-08-09T02:38:36.200Z,74.70
2022-08-09T02:41:06.485Z,74.80
2022-08-09T02:43:54.270Z,74.90
2022-08-09T02:46:22.734Z,75.00
2022-08-09T02:48:51.356Z,75.00
2022-08-09T02:51:20.103Z,75.10
2022-08-09T02:53:59.656Z,75.10
2022-08-09T02:56:28.022Z,75.10
2022-08-09T02:58:55.252Z,75.10
2022-08-09T03:01:29.427Z,75.00
2022-08-09T03:04:18.271Z,75.10
2022-08-09T03:06:48.887Z,75.10
2022-08-09T03:09:17.336Z,75.10
2022-08-09T03:12:06.716Z,75.20
2022-08-09T03:14:32.144Z,75.10
2022-08-09T03:17:02.198Z,75.20
2022-08-09T03:19:58.026Z,75.20
2022-08-09T03:22:25.713Z,75.40
2022-08-09T03:25:06.512Z,75.50
2022-08-09T03:27:46.383Z,75.50
2022-08-09T03:30:14.112Z,75.60
2022-08-09T03:32:51.514Z,75.70
2022-08-09T03:35:44.451Z,75.80
2022-08-09T03:38:05.444Z,75.90
2022-08-09T03:40:32.252Z,75.90
2022-08-09T03:42:59.579Z,76.00
2022-08-09T03:46:05.177Z,76.00
2022-08-09T03:48:19.011Z,76.10
2022-08-09T03:50:56.902Z,76.20
2022-08-09T03:53:23.915Z,76.30
2022-08-09T03:55:59.099Z,76.30
2022-08-09T03:58:25.852Z,76.30
2022-08-09T04:00:54.385Z,76.40
2022-08-09T04:03:35.759Z,76.50
2022-08-09T04:06:07.990Z,76.60
2022-08-09T04:08:38.471Z,76.60
2022-08-09T04:11:05.942Z,76.60
2022-08-09T04:13:44.939Z,76.70
2022-08-09T04:16:21.424Z,76.60
2022-08-09T04:18:50.962Z,76.60
2022-08-09T04:21:19.158Z,76.60
2022-08-09T04:23:52.441Z,76.60
2022-08-09T04:26:23.279Z,76.60
2022-08-09T04:28:50.262Z,76.70
2022-08-09T04:31:16.944Z,76.70
2022-08-09T04:33:47.655Z,76.80
2022-08-09T04:36:21.117Z,76.90
2022-08-09T04:38:50.155Z,76.90
2022-08-09T04:41:16.801Z,77.00
2022-08-09T04:43:46.553Z,77.00
2022-08-09T04:46:57.605Z,77.10
2022-08-09T04:49:07.962Z,77.10
2022-08-09T04:51:35.193Z,77.10
2022-08-09T04:54:03.751Z,77.20
2022-08-09T04:56:30.547Z,77.30
2022-08-09T04:58:57.392Z,77.40
2022-08-09T05:01:24.098Z,77.40
2022-08-09T05:03:56.866Z,77.50
2022-08-09T05:06:27.524Z,77.50
2022-08-09T05:09:00.441Z,77.60
2022-08-09T05:11:35.378Z,77.50
2022-08-09T05:14:06.684Z,77.70
2022-08-09T05:16:43.561Z,77.80
2022-08-09T05:19:25.613Z,77.90
2022-08-09T05:21:55.824Z,78.00
2022-08-09T05:24:24.274Z,78.10
2022-08-09T05:26:51.497Z,78.20
2022-08-09T05:29:23.861Z,78.20
2022-08-09T05:31:56.961Z,78.20
2022-08-09T05:34:30.165Z,78.30
2022-08-09T05:37:01.694Z,78.40
2022-08-09T05:39:36.400Z,78.70
2022-08-09T05:42:10.121Z,78.60
2022-08-09T05:44:44.791Z,78.80
2022-08-09T05:47:14.463Z,78.90
2022-08-09T05:50:30.507Z,78.90
2022-08-09T05:52:28.063Z,78.90
2022-08-09T05:55:03.067Z,79.00
2022-08-09T05:57:55.153Z,79.00
2022-08-09T06:00:23.546Z,79.00
2022-08-09T06:02:54.115Z,78.90
2022-08-09T06:05:31.136Z,78.60
2022-08-09T06:08:11.798Z,78.60
2022-08-09T06:10:38.987Z,78.70
2022-08-09T06:13:18.795Z,78.60
2022-08-09T06:15:51.745Z,78.70
2022-08-09T06:18:23.797Z,78.60
2022-08-09T06:20:56.725Z,78.50
2022-08-09T06:23:57.248Z,78.60
2022-08-09T06:26:13.543Z,78.60
2022-08-09T06:28:43.306Z,78.40
2022-08-09T06:31:10.632Z,78.00
2022-08-09T06:33:40.455Z,77.90
2022-08-09T06:36:09.290Z,77.90
2022-08-09T06:38:37.346Z,77.90
2022-08-09T06:41:18.344Z,77.60
2022-08-09T06:43:47.315Z,77.50
2022-08-09T06:46:39.565Z,77.20
2022-08-09T06:49:01.818Z,77.10
2022-08-09T06:51:28.803Z,77.00
2022-08-09T06:53:56.005Z,76.90
2022-08-09T06:56:30.821Z,76.90
2022-08-09T07:00:52.508Z,76.80
2022-08-09T07:01:57.790Z,76.80
2022-08-09T07:04:25.204Z,76.50
2022-08-09T07:07:00.677Z,76.00
2022-08-09T07:09:55.276Z,75.80
2022-08-09T07:12:17.952Z,75.60
2022-08-09T07:14:51.130Z,75.50
2022-08-09T07:17:19.791Z,75.00
2022-08-09T07:19:48.234Z,74.80
2022-08-09T07:22:18.913Z,74.80
2022-08-09T07:25:00.986Z,74.70
2022-08-09T07:27:34.405Z,74.50
2022-08-09T07:30:13.259Z,74.50
2022-08-09T07:32:43.236Z,74.00
2022-08-09T07:35:12.946Z,73.40
2022-08-09T07:37:44.541Z,73.30
2022-08-09T07:40:13.516Z,73.10
2022-08-09T07:42:48.620Z,72.40
2022-08-09T07:45:22.687Z,72.20
2022-08-09T07:48:00.815Z,72.20
2022-08-09T07:50:34.862Z,72.00
2022-08-09T07:53:05.110Z,71.70
2022-08-09T07:56:02.766Z,71.50
2022-08-09T07:58:21.666Z,71.30
2022-08-09T08:00:58.682Z,71.00
2022-08-09T08:03:32.785Z,70.90
2022-08-09T08:05:59.476Z,70.40
2022-08-09T08:08:59.857Z,70.10
2022-08-09T08:12:11.111Z,69.80
2022-08-09T08:14:00.350Z,69.60
2022-08-09T08:16:31.396Z,69.50
2022-08-09T08:18:59.639Z,69.40
2022-08-09T08:21:30.408Z,68.50
2022-08-09T08:23:57.290Z,68.50
2022-08-09T08:26:47.433Z,68.40
2022-08-09T08:29:15.258Z,68.30
2022-08-09T08:32:02.678Z,68.30
2022-08-09T08:34:31.015Z,68.40
2022-08-09T08:37:01.235Z,68.40
2022-08-09T08:39:28.497Z,67.60
2022-08-09T08:41:55.399Z,67.20
2022-08-09T08:44:29.168Z,66.70
2022-08-09T08:47:04.824Z,66.90
2022-08-09T08:49:48.467Z,67.00
2022-08-09T08:52:48.584Z,66.40
2022-08-09T08:55:05.574Z,65.90
2022-08-09T08:57:34.705Z,65.90
2022-08-09T09:00:02.471Z,66.00
2022-08-09T09:02:35.721Z,65.90
2022-08-09T09:05:09.930Z,66.00
2022-08-09T09:07:42.444Z,65.90
2022-08-09T09:10:10.239Z,65.70
2022-08-09T09:12:37.428Z,65.20
2022-08-09T09:15:06.487Z,65.40
2022-08-09T09:17:49.169Z,65.20
2022-08-09T09:20:21.256Z,65.00
2022-08-09T09:23:01.867Z,65.30
2022-08-09T09:26:01.381Z,65.50
2022-08-09T09:28:21.312Z,65.90
2022-08-09T09:31:17.598Z,64.80
2022-08-09T09:34:14.576Z,65.00
2022-08-09T09:36:51.061Z,64.80
2022-08-09T09:39:42.811Z,64.60
2022-08-09T09:42:21.682Z,64.70
2022-08-09T09:44:54.874Z,64.60
2022-08-09T09:47:23.091Z,64.20
2022-08-09T09:50:13.599Z,64.20
2022-08-09T09:52:53.422Z,63.70
2022-08-09T09:55:29.331Z,63.80
2022-08-09T09:58:18.840Z,63.80
2022-08-09T10:00:52.529Z,63.90
2022-08-09T10:03:59.628Z,63.90
2022-08-09T10:06:28.578Z,63.70
2022-08-09T10:09:11.712Z,63.60
2022-08-09T10:12:11.458Z,63.40
2022-08-09T10:14:40.023Z,63.50
2022-08-09T10:17:40.559Z,63.10
2022-08-09T10:20:02.696Z,63.00
2022-08-09T10:22:34.213Z,63.00
2022-08-09T10:25:03.411Z,62.70
2022-08-09T10:27:38.958Z,62.60
2022-08-09T10:33:09.486Z,62.10
2022-08-09T10:35:57.011Z,61.80
2022-08-09T10:38:54.556Z,62.00
2022-08-09T10:41:16.603Z,62.00
2022-08-09T10:43:58.522Z,61.90
2022-08-09T10:46:55.723Z,61.60
2022-08-09T10:52:27.330Z,61.50
2022-08-09T10:54:55.417Z,61.30
2022-08-09T10:57:23.522Z,61.50
2022-08-09T10:59:57.633Z,61.30
2022-08-09T11:03:13.759Z,61.50
2022-08-09T11:05:29.760Z,61.20
2022-08-09T11:08:17.268Z,60.70
2022-08-09T11:10:53.437Z,61.00
2022-08-09T11:13:50.021Z,61.60
2022-08-09T11:16:35.730Z,61.40
2022-08-09T11:19:09.652Z,61.50
2022-08-09T11:21:57.467Z,61.10
2022-08-09T11:24:56.758Z,61.20
2022-08-09T11:28:09.178Z,60.80
2022-08-09T11:30:33.556Z,60.80
2022-08-09T11:33:01.446Z,60.50
2022-08-09T11:35:49.443Z,60.70
2022-08-09T11:38:18.159Z,60.20
2022-08-09T11:40:45.456Z,59.90
2022-08-09T11:43:16.517Z,60.90
2022-08-09T11:45:53.755Z,60.60
2022-08-09T11:48:26.770Z,59.40
2022-08-09T11:52:37.367Z,59.30
2022-08-09T11:53:57.616Z,59.40
2022-08-09T11:56:42.189Z,59.50
2022-08-09T11:59:11.677Z,59.50
2022-08-09T12:02:18.409Z,59.20
2022-08-09T12:04:32.200Z,59.90
2022-08-09T12:07:04.556Z,60.30
2022-08-09T12:09:36.182Z,60.30
2022-08-09T12:12:13.099Z,60.30
2022-08-09T12:15:08.479Z,60.50
2022-08-09T12:17:44.445Z,60.30
2022-08-09T12:20:21.793Z,59.70
2022-08-09T12:23:00.519Z,60.10
2022-08-09T12:25:36.817Z,59.90
2022-08-09T12:29:14.548Z,59.90
2022-08-09T12:30:58.982Z,59.90
2022-08-09T12:33:35.311Z,60.20
2022-08-09T12:36:15.424Z,60.20
2022-08-09T12:38:58.625Z,60.00
2022-08-09T12:41:32.667Z,59.80
2022-08-09T12:44:09.728Z,60.00
2022-08-09T12:46:39.567Z,59.90
2022-08-09T12:49:08.784Z,60.10
2022-08-09T12:52:01.159Z,60.40
2022-08-09T12:54:22.360Z,60.50
2022-08-09T12:56:54.000Z,60.10
2022-08-09T12:59:40.000Z,59.80
2022-08-09T13:02:12.529Z,59.60
2022-08-09T13:04:41.929Z,59.50
2022-08-09T13:07:19.315Z,59.20
2022-08-09T13:09:55.608Z,59.10
2022-08-09T13:12:26.991Z,58.70
2022-08-09T13:15:03.583Z,58.70
2022-08-09T13:18:03.108Z,58.80
2022-08-09T13:20:23.382Z,58.60
2022-08-09T13:23:01.700Z,58.20
2022-08-09T13:25:43.023Z,58.40
2022-08-09T13:28:34.670Z,58.40
2022-08-09T13:32:14.405Z,58.30
2022-08-09T13:33:54.803Z,58.30
2022-08-09T13:36:41.538Z,58.40
2022-08-09T13:41:52.559Z,58.40
2022-08-09T13:42:22.326Z,58.50
2022-08-09T13:44:50.151Z,58.60
2022-08-09T13:47:33.537Z,58.70
2022-08-09T13:50:18.097Z,58.70
2022-08-09T13:52:57.521Z,58.60
2022-08-09T13:55:24.515Z,58.60
2022-08-09T13:57:59.356Z,58.50
2022-08-09T14:00:28.954Z,58.40
2022-08-09T14:03:03.485Z,58.00
2022-08-09T14:05:59.817Z,57.30
2022-08-09T14:08:29.938Z,57.30
2022-08-09T14:10:57.230Z,57.20
2022-08-09T14:14:16.390Z,57.20
2022-08-09T14:16:15.801Z,57.30
2022-08-09T14:18:45.765Z,57.10
2022-08-09T14:21:20.658Z,57.40
2022-08-09T14:23:55.047Z,57.50
2022-08-09T14:26:30.144Z,57.90
2022-08-09T14:29:08.174Z,58.00
2022-08-09T14:31:53.638Z,58.00
2022-08-09T14:34:27.570Z,57.90
2022-08-09T14:37:00.475Z,58.10
2022-08-09T14:39:45.506Z,58.00
2022-08-09T14:42:30.301Z,57.60
2022-08-09T14:45:00.379Z,57.90
2022-08-09T14:47:42.892Z,58.00
2022-08-09T14:50:15.949Z,57.90
2022-08-09T14:52:43.158Z,58.10
2022-08-09T14:55:10.000Z,57.70
2022-08-09T14:57:43.513Z,57.50
2022-08-09T15:00:10.998Z,57.60
2022-08-09T15:02:38.623Z,57.80
2022-08-09T15:05:07.223Z,57.80
2022-08-09T15:07:35.177Z,57.80
2022-08-09T15:10:10.832Z,57.80
2022-08-09T15:12:45.027Z,57.90
2022-08-09T15:15:12.953Z,58.00
2022-08-09T15:17:41.804Z,57.90
2022-08-09T15:20:12.033Z,57.80
2022-08-09T15:22:47.043Z,57.90
2022-08-09T15:25:14.383Z,58.20
2022-08-09T15:27:54.834Z,58.20
2022-08-09T15:30:55.747Z,58.10
2022-08-09T15:33:15.177Z,57.80
2022-08-09T15:36:01.470Z,57.90
2022-08-09T15:38:29.011Z,58.00
2022-08-09T15:40:55.672Z,58.00
2022-08-09T15:43:24.807Z,58.20
2022-08-09T15:46:28.482Z,58.20
2022-08-09T15:49:20.721Z,58.20
2022-08-09T15:52:02.109Z,58.20
2022-08-09T15:54:31.600Z,58.30
2022-08-09T15:57:07.326Z,58.40
2022-08-09T15:59:37.300Z,58.50
2022-08-09T16:02:04.299Z,58.20
2022-08-09T16:04:36.902Z,57.90
2022-08-09T16:07:03.759Z,57.80
2022-08-09T16:09:32.336Z,57.90
2022-08-09T16:12:31.303Z,58.00
2022-08-09T16:16:11.853Z,58.10
2022-08-09T16:18:13.073Z,58.20
2022-08-09T16:20:41.707Z,58.20
2022-08-09T16:23:19.974Z,58.30
2022-08-09T16:25:49.659Z,58.40
2022-08-09T16:28:16.696Z,58.50
2022-08-09T16:30:44.826Z,58.50
2022-08-09T16:33:23.790Z,58.50
2022-08-09T16:35:57.981Z,58.40
2022-08-09T16:38:26.684Z,58.50
2022-08-09T16:40:53.420Z,58.20
2022-08-09T16:43:22.296Z,57.90
2022-08-09T16:45:53.653Z,58.00
2022-08-09T16:48:41.363Z,58.70
2022-08-09T16:51:14.100Z,58.30
2022-08-09T16:54:24.866Z,58.60
2022-08-09T16:56:32.812Z,58.60
2022-08-09T16:59:06.755Z,58.90
2022-08-09T17:01:38.651Z,59.10
2022-08-09T17:04:06.675Z,59.30
2022-08-09T17:06:35.334Z,59.50
2022-08-09T17:09:45.609Z,59.60
2022-08-09T17:12:07.787Z,59.70
2022-08-09T17:15:58.913Z,59.10
2022-08-09T17:18:10.565Z,59.30
2022-08-09T17:20:42.410Z,58.90
2022-08-09T17:23:16.493Z,58.90
2022-08-09T17:25:52.962Z,59.00
2022-08-09T17:28:20.285Z,59.20
2022-08-09T17:30:47.845Z,59.40
2022-08-09T17:33:22.986Z,59.50
2022-08-09T17:35:50.223Z,60.10
2022-08-09T17:38:30.650Z,59.60
2022-08-09T17:41:00.726Z,59.80
2022-08-09T17:43:34.223Z,59.90
2022-08-09T17:46:08.999Z,60.00
2022-08-09T17:48:51.644Z,60.80
2022-08-09T17:51:20.490Z,60.40
2022-08-09T17:53:52.648Z,60.50
2022-08-09T17:56:26.740Z,60.70
2022-08-09T17:58:59.906Z,60.80
2022-08-09T18:02:03.613Z,61.00
2022-08-09T18:04:14.491Z,61.00
2022-08-09T18:06:43.107Z,61.10
2022-08-09T18:09:21.475Z,61.20
2022-08-09T18:12:05.163Z,61.20
2022-08-09T18:14:36.823Z,61.40
2022-08-09T18:17:18.954Z,61.40
2022-08-09T18:20:58.881Z,61.50
2022-08-09T18:22:50.898Z,61.70
2022-08-09T18:25:18.315Z,61.80
2022-08-09T18:28:02.830Z,62.00
2022-08-09T18:30:41.447Z,62.10
2022-08-09T18:33:15.361Z,62.30
2022-08-09T18:36:00.055Z,62.30
2022-08-09T18:38:27.536Z,62.40
2022-08-09T18:40:55.466Z,62.50
2022-08-09T18:43:23.382Z,62.60
2022-08-09T18:46:50.228Z,63.00
2022-08-09T18:48:37.114Z,63.00
2022-08-09T18:51:04.089Z,63.10
2022-08-09T18:53:56.360Z,63.20
2022-08-09T18:56:27.194Z,63.30
2022-08-09T18:58:56.417Z,63.40
2022-08-09T19:01:24.381Z,63.60
2022-08-09T19:04:01.536Z,63.50
2022-08-09T19:06:34.144Z,63.70
2022-08-09T19:09:02.700Z,63.80
2022-08-09T19:11:37.871Z,63.90
2022-08-09T19:14:08.416Z,64.00
2022-08-09T19:16:36.911Z,64.10
2022-08-09T19:19:25.195Z,64.20
2022-08-09T19:22:04.781Z,64.20
2022-08-09T19:24:38.332Z,64.50
2022-08-09T19:27:20.175Z,65.00
2022-08-09T19:30:24.905Z,64.60
2022-08-09T19:32:37.170Z,64.50
2022-08-09T19:35:04.871Z,64.60
2022-08-09T19:37:41.129Z,64.70
2022-08-09T19:40:19.712Z,64.90
2022-08-09T19:42:47.411Z,65.00
2022-08-09T19:45:16.927Z,65.10
2022-08-09T19:47:44.748Z,65.20
2022-08-09T19:50:49.206Z,65.20
2022-08-09T19:52:59.813Z,65.30
2022-08-09T19:56:02.854Z,65.30
2022-08-09T19:58:30.219Z,65.40
2022-08-09T20:00:57.813Z,66.10
2022-08-09T20:04:18.713Z,65.70
2022-08-09T20:06:23.874Z,65.80
2022-08-09T20:08:57.609Z,65.80
2022-08-09T20:11:42.870Z,65.90
2022-08-09T20:14:15.420Z,66.00
2022-08-09T20:16:49.993Z,66.20
2022-08-09T20:19:47.669Z,66.30
2022-08-09T20:22:09.006Z,66.60
2022-08-09T20:24:36.916Z,66.70
2022-08-09T20:27:08.761Z,66.80
2022-08-09T20:29:38.721Z,66.90
2022-08-09T20:32:28.840Z,67.10
2022-08-09T20:34:58.487Z,67.00
2022-08-09T20:37:25.471Z,67.10
2022-08-09T20:40:17.632Z,67.30
2022-08-09T20:42:46.510Z,67.50
2022-08-09T20:46:00.753Z,67.50
2022-08-09T20:48:13.769Z,67.70
2022-08-09T20:50:51.117Z,67.70
2022-08-09T20:53:36.867Z,67.80
2022-08-09T20:56:19.946Z,68.00
2022-08-09T20:58:48.693Z,68.60
2022-08-09T21:01:35.010Z,68.10
2022-08-09T21:05:48.438Z,68.30
2022-08-09T21:06:51.057Z,68.30
2022-08-09T21:09:32.835Z,68.40
2022-08-09T21:14:36.969Z,68.70
2022-08-09T21:18:22.166Z,68.80
2022-08-09T21:20:18.680Z,68.90
2022-08-09T21:22:41.624Z,69.20
2022-08-09T21:25:28.319Z,69.30
2022-08-09T21:28:07.472Z,69.40
2022-08-09T21:30:40.536Z,69.50
2022-08-09T21:33:08.651Z,69.60
2022-08-09T21:35:40.821Z,69.80
2022-08-09T21:38:30.873Z,69.90
2022-08-09T21:40:59.469Z,70.00
2022-08-09T21:43:56.245Z,70.20
2022-08-09T21:46:13.705Z,70.30
2022-08-09T21:48:42.716Z,70.50
2022-08-09T21:51:23.866Z,70.50
2022-08-09T21:53:54.669Z,70.60
2022-08-09T21:56:42.905Z,70.70
2022-08-09T21:59:09.699Z,70.80
2022-08-09T22:01:58.776Z,70.90
2022-08-09T22:04:55.628Z,71.00
2022-08-09T22:07:12.233Z,71.20
2022-08-09T22:09:43.407Z,72.00
2022-08-09T22:12:18.555Z,71.50
2022-08-09T22:14:46.509Z,71.70
2022-08-09T22:17:13.662Z,71.90
2022-08-09T22:19:58.851Z,72.10
2022-08-09T22:22:27.895Z,72.30
2022-08-09T22:26:05.909Z,72.50
2022-08-09T22:27:42.161Z,72.60
2022-08-09T22:30:09.923Z,72.80
2022-08-09T22:32:37.384Z,73.00
2022-08-09T22:35:06.765Z,73.10
2022-08-09T22:38:07.328Z,73.20
2022-08-09T22:40:35.378Z,73.50
2022-08-09T22:43:15.984Z,73.80
2022-08-09T22:48:12.671Z,74.00
2022-08-09T22:48:35.290Z,74.10
2022-08-09T22:51:10.410Z,74.40
2022-08-09T22:53:58.317Z,74.70
2022-08-09T22:56:31.228Z,74.80
2022-08-09T22:59:05.766Z,75.10
2022-08-09T23:01:49.654Z,75.30
2022-08-09T23:04:16.547Z,75.50
2022-08-09T23:07:02.603Z,75.60
2022-08-09T23:09:29.812Z,75.70
2022-08-09T23:11:56.649Z,75.80
2022-08-09T23:14:37.691Z,76.00
2022-08-09T23:17:09.162Z,76.20
2022-08-09T23:20:06.495Z,76.30
2022-08-09T23:22:22.876Z,76.30
2022-08-09T23:24:49.825Z,76.30
2022-08-09T23:27:16.619Z,76.60
2022-08-09T23:29:43.511Z,76.80
2022-08-09T23:32:10.306Z,76.80
2022-08-09T23:34:37.666Z,77.00
2022-08-09T23:37:05.004Z,77.10
2022-08-09T23:39:32.308Z,77.40
2022-08-09T23:41:59.421Z,77.30
2022-08-09T23:44:26.609Z,77.40
2022-08-09T23:46:57.795Z,77.50
2022-08-09T23:49:25.862Z,77.50
2022-08-09T23:51:54.014Z,77.50
2022-08-09T23:54:21.161Z,77.60
2022-08-09T23:56:56.071Z,77.60
2022-08-09T23:59:25.027Z,77.70
